Time;durP1;ratioP1;P1;durP2;ratioP2;P2;SDS_P1;SDS_P2;PMS_P1;PMS_P2;Temp;Humidity;BMP_temperature;BMP_pressure;BME280_temperature;BME280_humidity;BME280_pressure;Samples;Min_cycle;Max_cycle;Signal;HPM_P1;HPM_P2
2022/03/01 00:00:16;;;;;;;;;;;-3276.30;67.20;;;;;;5027358;28;20441;-83
2022/03/01 00:02:43;;;;;;;33.47;10.90;;;-3276.40;67.40;;;;;;4995059;28;19967;-81
2022/03/01 00:05:09;;;;;;;29.10;10.67;;;-3276.30;67.10;;;;;;5027915;28;20022;-82
2022/03/01 00:07:34;;;;;;;;;;;-3276.30;67.20;;;;;;5028226;28;20096;-82
2022/03/01 00:10:00;;;;;;;29.40;10.40;;;-3276.30;67.40;;;;;;4994999;28;20318;-81
2022/03/01 00:12:26;;;;;;;;;;;-3276.30;67.20;;;;;;5027250;28;20356;-81
2022/03/01 00:14:52;;;;;;;30.70;10.73;;;-3276.30;67.30;;;;;;4994794;28;19917;-82
2022/03/01 00:17:18;;;;;;;26.23;10.77;;;-3276.30;67.10;;;;;;5027215;28;20399;-82
2022/03/01 00:19:43;;;;;;;;;;;-3276.20;67.30;;;;;;4997133;28;20034;-84
2022/03/01 00:22:09;;;;;;;20.93;9.70;;;-3276.20;67.50;;;;;;4994998;28;19910;-84
2022/03/01 00:24:34;;;;;;;;;;;-3276.20;67.40;;;;;;5027603;28;20109;-83
2022/03/01 00:27:00;;;;;;;23.13;10.90;;;-3276.20;67.40;;;;;;4995408;28;19917;-83
2022/03/01 00:29:25;;;;;;;;;;;-3276.20;67.20;;;;;;5027696;28;20019;-84
2022/03/01 00:31:51;;;;;;;27.90;11.70;;;-3276.20;67.40;;;;;;4995094;28;19993;-82
2022/03/01 00:34:17;;;;;;;31.52;13.40;;;-3276.20;67.20;;;;;;5027739;28;20023;-82
2022/03/01 00:36:42;;;;;;;;;;;-3276.10;67.30;;;;;;5027381;28;20030;-84
2022/03/01 00:39:08;;;;;;;37.93;12.37;;;-3276.10;67.40;;;;;;4995014;28;19909;-83
2022/03/01 00:41:34;;;;;;;;;;;-3276.00;67.20;;;;;;5027688;28;20364;-82
2022/03/01 00:43:59;;;;;;;39.97;12.60;;;-3275.90;67.40;;;;;;4994505;28;19940;-83
2022/03/01 00:46:26;;;;;;;;;;;-3275.80;67.30;;;;;;5027929;28;20058;-83
2022/03/01 00:48:53;;;;;;;28.67;11.23;;;-3275.70;67.50;;;;;;4995317;28;19909;-81
2022/03/01 00:51:19;;;;;;;36.47;14.47;;;-3275.70;67.40;;;;;;5027954;28;20022;-82
2022/03/01 00:53:44;;;;;;;;;;;-3275.60;67.50;;;;;;4997005;28;20521;-82
2022/03/01 00:56:10;;;;;;;32.63;13.87;;;-3275.60;67.80;;;;;;4994708;28;20000;-83
2022/03/01 00:58:35;;;;;;;;;;;-3275.50;67.50;;;;;;5028098;28;20031;-82
2022/03/01 01:01:01;;;;;;;29.93;12.63;;;-3275.40;67.80;;;;;;4995211;28;20278;-84
2022/03/01 01:03:26;;;;;;;;;;;-3275.40;67.60;;;;;;5028427;28;20026;-83
2022/03/01 01:05:52;;;;;;;30.20;12.97;;;-3275.30;67.80;;;;;;4994540;28;19909;-83
2022/03/01 01:08:17;;;;;;;;;;;-3275.30;67.60;;;;;;5027258;28;20034;-83
2022/03/01 01:10:43;;;;;;;26.30;11.57;;;-3275.20;67.80;;;;;;4994119;28;19913;-83
2022/03/01 01:13:08;;;;;;;35.47;12.95;;;-3275.20;67.70;;;;;;5025984;28;20034;-82
2022/03/01 01:15:34;;;;;;;36.75;13.00;;;-3275.00;67.90;;;;;;5026680;28;20033;-82
2022/03/01 01:18:00;;;;;;;32.30;12.13;;;-3275.00;68.00;;;;;;5027299;28;20030;-83
2022/03/01 01:20:25;;;;;;;32.13;14.13;;;-3274.90;68.20;;;;;;5028342;28;20411;-81
2022/03/01 01:22:52;;;;;;;;;;;-3274.90;68.30;;;;;;5027673;28;20064;-83
2022/03/01 01:25:23;;;;;;;32.33;10.80;;;-3274.90;68.30;;;;;;4995221;28;19909;-84
2022/03/01 01:27:52;;;;;;;38.20;13.63;;;-3274.90;68.10;;;;;;4997448;28;20030;-84
2022/03/01 01:30:23;;;;;;;34.73;14.13;;;-3274.80;68.20;;;;;;5029586;28;20037;-84
2022/03/01 01:32:49;;;;;;;40.93;15.23;;;-3274.70;68.30;;;;;;5031963;28;20026;-83
2022/03/01 01:35:16;;;;;;;;;;;-3274.70;68.50;;;;;;5037377;28;20030;-84
2022/03/01 01:37:42;;;;;;;36.35;13.95;;;-3274.70;68.60;;;;;;5014929;28;19926;-83
2022/03/01 01:40:11;;;;;;;38.90;14.90;;;-3274.60;68.30;;;;;;5048256;28;20022;-84
2022/03/01 01:42:37;;;;;;;39.17;14.50;;;-3274.60;68.40;;;;;;5016723;28;20081;-83
2022/03/01 01:45:03;;;;;;;;;;;-3274.60;68.60;;;;;;5049072;28;20015;-84
2022/03/01 01:47:29;;;;;;;28.63;11.70;;;-3274.50;68.70;;;;;;5014218;28;19905;-82
2022/03/01 01:49:54;;;;;;;;;;;-3274.50;68.40;;;;;;5048856;28;20040;-82
2022/03/01 01:52:20;;;;;;;30.23;11.50;;;-3274.50;68.60;;;;;;5015611;28;19972;-83
2022/03/01 01:54:46;;;;;;;;;;;-3274.50;68.40;;;;;;5048628;28;20090;-82
2022/03/01 01:57:17;;;;;;;27.27;9.03;;;-3274.50;68.60;;;;;;4999418;28;19917;-83
2022/03/01 01:59:43;;;;;;;25.03;8.77;;;-3274.60;68.40;;;;;;5029765;28;20030;-83
2022/03/01 02:02:13;;;;;;;24.30;10.93;;;-3274.50;68.50;;;;;;5028178;28;20361;-83
2022/03/01 02:04:39;;;;;;;27.07;9.43;;;-3274.60;68.60;;;;;;4993555;28;20100;-82
2022/03/01 02:07:06;;;;;;;31.57;10.43;;;-3274.60;68.70;;;;;;4994601;28;20030;-82
2022/03/01 02:09:32;;;;;;;26.03;10.77;;;-3274.60;68.80;;;;;;5025921;28;20109;-83
2022/03/01 02:11:57;;;;;;;;;;;-3274.70;68.90;;;;;;4995004;28;20109;-83
2022/03/01 02:14:23;;;;;;;27.47;8.97;;;-3274.60;68.90;;;;;;4993091;28;19913;-83
2022/03/01 02:16:48;;;;;;;;;;;-3274.70;68.70;;;;;;5026349;28;20057;-81
2022/03/01 02:19:14;;;;;;;18.47;8.10;;;-3274.70;68.70;;;;;;4993494;28;19916;-84
2022/03/01 02:21:50;;;;;;;;;;;-3274.60;68.50;;;;;;4993972;28;20369;-82
2022/03/01 02:24:17;;;;;;;22.73;9.03;;;-3274.60;68.70;;;;;;4993024;28;20263;-83
2022/03/01 02:26:42;;;;;;;19.93;9.70;;;-3274.60;68.40;;;;;;5025992;28;20097;-82
2022/03/01 02:29:08;;;;;;;;;;;-3274.50;68.60;;;;;;5025559;28;20098;-83
2022/03/01 02:31:34;;;;;;;23.63;9.53;;;-3274.50;68.80;;;;;;4998747;28;19959;-84
2022/03/01 02:33:59;;;;;;;25.33;9.55;;;-3274.50;68.60;;;;;;5025302;28;20479;-82
2022/03/01 02:36:25;;;;;;;;;;;-3274.40;68.70;;;;;;5025954;28;20018;-83
2022/03/01 02:38:50;;;;;;;26.73;10.17;;;-3274.40;68.90;;;;;;4992506;28;19917;-82
2022/03/01 02:41:16;;;;;;;;;;;-3274.40;68.60;;;;;;4994832;28;20023;-82
2022/03/01 02:43:41;;;;;;;25.20;11.57;;;-3274.30;68.80;;;;;;4994522;28;20371;-82
2022/03/01 02:46:07;;;;;;;;;;;-3274.30;68.60;;;;;;4995675;28;20061;-83
2022/03/01 02:48:32;;;;;;;30.77;14.93;;;-3274.30;68.80;;;;;;4998946;28;19894;-82
2022/03/01 02:50:58;;;;;;;;;;;-3274.20;68.70;;;;;;5025380;28;20066;-82
2022/03/01 02:53:23;;;;;;;32.43;13.00;;;-3274.20;68.90;;;;;;4992281;28;19910;-82
2022/03/01 02:55:49;;;;;;;30.45;12.52;;;-3274.20;68.70;;;;;;5029097;28;20030;-82
2022/03/01 02:58:16;;;;;;;;;;;-3274.20;68.90;;;;;;5029137;28;20026;-82
2022/03/01 03:00:45;;;;;;;30.05;11.80;;;-3274.20;69.10;;;;;;4992357;28;19910;-81
2022/03/01 03:03:14;;;;;;;25.60;10.30;;;-3274.30;68.90;;;;;;4995662;28;20114;-82
2022/03/01 03:05:40;;;;;;;21.90;10.87;;;-3274.30;69.00;;;;;;5029073;28;20353;-82
2022/03/01 03:08:07;;;;;;;;;;;-3274.30;69.00;;;;;;5029044;28;20125;-85
2022/03/01 03:10:33;;;;;;;22.95;8.90;;;-3274.30;69.10;;;;;;4995803;28;19959;-82
2022/03/01 03:13:03;;;;;;;23.87;8.90;;;-3274.30;68.90;;;;;;5028582;28;20093;-83
2022/03/01 03:15:28;;;;;;;22.70;8.27;;;-3274.30;69.00;;;;;;5028935;28;20036;-83
2022/03/01 03:17:54;;;;;;;;;;;-3274.30;69.10;;;;;;5030986;28;20535;-83
2022/03/01 03:20:21;;;;;;;18.13;8.03;;;-3274.40;69.20;;;;;;4997081;28;20004;-83
2022/03/01 03:22:46;;;;;;;21.30;8.30;;;-3274.30;68.90;;;;;;5028754;28;20041;-83
2022/03/01 03:25:12;;;;;;;;;;;-3274.40;69.00;;;;;;5028557;28;20416;-83
2022/03/01 03:27:38;;;;;;;18.47;7.63;;;-3274.30;69.20;;;;;;4995562;28;19996;-83
2022/03/01 03:30:04;;;;;;;;;;;-3274.30;68.90;;;;;;5028458;28;20030;-83
2022/03/01 03:32:30;;;;;;;25.60;8.57;;;-3274.30;69.10;;;;;;4996021;28;19910;-83
2022/03/01 03:34:55;;;;;;;;;;;-3274.30;68.90;;;;;;5028930;28;20033;-83
2022/03/01 03:37:21;;;;;;;24.27;9.47;;;-3274.20;69.00;;;;;;4996683;28;19969;-84
2022/03/01 03:39:46;;;;;;;;;;;-3274.20;68.90;;;;;;5029871;28;20029;-83
2022/03/01 03:42:12;;;;;;;29.43;9.97;;;-3274.20;69.10;;;;;;4997150;28;20373;-83
2022/03/01 03:44:39;;;;;;;25.83;9.93;;;-3274.10;68.90;;;;;;5028664;28;20404;-83
2022/03/01 03:47:05;;;;;;;30.57;10.83;;;-3274.10;69.10;;;;;;4997177;28;20023;-82
2022/03/01 03:49:31;;;;;;;26.80;11.33;;;-3274.00;69.20;;;;;;5029175;28;20018;-82
2022/03/01 03:51:57;;;;;;;;;;;-3274.00;69.40;;;;;;5028592;28;20534;-82
2022/03/01 03:54:23;;;;;;;22.93;9.27;;;-3274.00;69.60;;;;;;4997301;28;19937;-82
2022/03/01 03:56:48;;;;;;;;;;;-3274.10;69.40;;;;;;5028100;28;20054;-82
2022/03/01 03:59:14;;;;;;;22.47;9.67;;;-3274.10;69.40;;;;;;4995219;28;19910;-82
2022/03/01 04:01:39;;;;;;;19.15;8.35;;;-3274.10;69.20;;;;;;5031057;28;20029;-83
2022/03/01 04:04:08;;;;;;;;;;;-3274.00;69.30;;;;;;5030597;28;20022;-83
2022/03/01 04:06:34;;;;;;;26.83;10.20;;;-3274.00;69.50;;;;;;4996428;28;19912;-82
2022/03/01 04:09:00;;;;;;;33.87;12.07;;;-3274.00;69.20;;;;;;5027336;28;20080;-84
2022/03/01 04:11:25;;;;;;;;;;;-3273.90;69.40;;;;;;4997130;28;20026;-83
2022/03/01 04:13:52;;;;;;;28.87;11.97;;;-3273.90;69.60;;;;;;4996087;28;19909;-82
2022/03/01 04:16:18;;;;;;;36.93;14.03;;;-3273.90;69.30;;;;;;5027629;28;20018;-83
2022/03/01 04:18:44;;;;;;;;;;;-3273.80;69.50;;;;;;5028642;28;20149;-83
2022/03/01 04:21:10;;;;;;;31.63;12.67;;;-3273.80;69.70;;;;;;4995267;28;19949;-83
2022/03/01 04:23:36;;;;;;;31.53;14.13;;;-3273.70;69.40;;;;;;5027824;28;20103;-83
2022/03/01 04:26:02;;;;;;;32.77;14.77;;;-3273.70;69.60;;;;;;5027908;28;20022;-84
2022/03/01 04:28:28;;;;;;;;;;;-3273.60;69.80;;;;;;5028227;28;20365;-83
2022/03/01 04:30:54;;;;;;;36.77;14.57;;;-3273.60;69.90;;;;;;4994334;28;19913;-83
2022/03/01 04:33:20;;;;;;;33.73;14.73;;;-3273.60;69.80;;;;;;5028098;28;20026;-83
2022/03/01 04:35:45;;;;;;;;;;;-3273.50;69.90;;;;;;4995214;28;20066;-83
2022/03/01 04:38:11;;;;;;;32.40;12.40;;;-3273.60;70.10;;;;;;4994663;28;19917;-82
2022/03/01 04:40:37;;;;;;;31.00;13.67;;;-3273.50;69.80;;;;;;5024809;28;20049;-82
2022/03/01 04:43:03;;;;;;;;;;;-3273.50;69.90;;;;;;4993981;28;20480;-83
2022/03/01 04:45:28;;;;;;;35.47;12.23;;;-3273.40;70.00;;;;;;4993934;28;19949;-83
2022/03/01 04:47:56;;;;;;;30.80;13.90;;;-3273.40;69.80;;;;;;4994741;28;20026;-84
2022/03/01 04:50:21;;;;;;;;;;;-3273.30;69.90;;;;;;4995579;28;20045;-83
2022/03/01 04:52:47;;;;;;;30.90;12.33;;;-3273.30;70.10;;;;;;4994284;28;19909;-83
2022/03/01 04:55:13;;;;;;;;;;;-3273.30;69.90;;;;;;5029352;28;20159;-82
2022/03/01 04:57:39;;;;;;;35.10;12.73;;;-3273.20;70.00;;;;;;4994463;28;19945;-83
2022/03/01 05:00:10;;;;;;;;;;;-3273.20;69.80;;;;;;5028057;28;20023;-82
2022/03/01 05:02:37;;;;;;;30.03;11.90;;;-3273.20;70.00;;;;;;4991676;28;19956;-82
2022/03/01 05:05:03;;;;;;;28.30;12.23;;;-3273.10;69.80;;;;;;5027755;28;20470;-83
2022/03/01 05:07:28;;;;;;;;;;;-3273.10;70.00;;;;;;5027769;28;20038;-83
2022/03/01 05:09:54;;;;;;;29.50;11.03;;;-3273.00;70.20;;;;;;4996654;28;19917;-83
2022/03/01 05:12:20;;;;;;;;;;;-3273.00;70.00;;;;;;5047890;28;20042;-83
2022/03/01 05:14:45;;;;;;;25.13;11.10;;;-3273.00;70.10;;;;;;5015127;28;19905;-83
2022/03/01 05:17:11;;;;;;;;;;;-3273.00;69.90;;;;;;5017022;28;20034;-83
2022/03/01 05:19:37;;;;;;;31.03;11.50;;;-3272.90;70.10;;;;;;5016352;28;19940;-85
2022/03/01 05:22:03;;;;;;;;;;;-3272.80;69.90;;;;;;5049937;28;20014;-83
2022/03/01 05:24:29;;;;;;;31.00;10.40;;;-3272.80;70.10;;;;;;5016395;28;19902;-83
2022/03/01 05:26:54;;;;;;;;;;;-3272.80;69.90;;;;;;5050074;28;20098;-83
2022/03/01 05:29:20;;;;;;;26.00;11.73;;;-3272.80;70.10;;;;;;5015644;28;19921;-84
2022/03/01 05:31:46;;;;;;;;;;;-3272.80;69.90;;;;;;5039671;28;20023;-83
2022/03/01 05:34:11;;;;;;;22.67;10.87;;;-3272.80;70.10;;;;;;5002012;28;19913;-82
2022/03/01 05:36:37;;;;;;;;;;;-3272.80;69.90;;;;;;5029103;28;20034;-83
2022/03/01 05:39:02;;;;;;;31.13;12.40;;;-3272.70;70.10;;;;;;4996862;28;19920;-83
2022/03/01 05:41:28;;;;;;;;;;;-3272.80;70.00;;;;;;5030195;28;20048;-84
2022/03/01 05:43:54;;;;;;;26.67;11.43;;;-3272.80;70.10;;;;;;4994691;28;19910;-82
2022/03/01 05:46:19;;;;;;;;;;;-3272.80;70.00;;;;;;5027081;28;20023;-83
2022/03/01 05:52:11;;;;;;;34.03;12.20;;;-3272.70;70.00;;;;;;4982187;28;20038;-83
2022/03/01 05:54:36;;;;;;;;;;;-3272.80;70.00;;;;;;4994914;28;20069;-83
2022/03/01 05:57:02;;;;;;;38.23;13.97;;;-3272.80;70.20;;;;;;4992632;28;19909;-83
2022/03/01 05:59:27;;;;;;;;;;;-3272.80;70.00;;;;;;4992739;28;20027;-83
2022/03/01 06:01:53;;;;;;;41.70;16.93;;;-3272.80;70.20;;;;;;4993773;28;20025;-83
2022/03/01 06:04:18;;;;;;;;;;;-3272.80;70.00;;;;;;5027331;28;20105;-83
2022/03/01 06:06:44;;;;;;;41.40;16.20;;;-3272.90;70.20;;;;;;4998123;28;19910;-83
2022/03/01 06:09:09;;;;;;;;;;;-3272.90;70.00;;;;;;5027616;28;20028;-83
2022/03/01 06:11:35;;;;;;;48.67;19.10;;;-3273.00;70.10;;;;;;4995072;28;20016;-83
2022/03/01 06:14:00;;;;;;;;;;;-3273.00;70.00;;;;;;4995885;28;20030;-82
2022/03/01 06:16:26;;;;;;;44.40;18.30;;;-3273.00;70.20;;;;;;4995624;28;19996;-82
2022/03/01 06:18:51;;;;;;;;;;;-3273.10;70.00;;;;;;4993962;28;20480;-82
2022/03/01 06:21:17;;;;;;;41.63;16.40;;;-3273.10;70.10;;;;;;4997334;28;20274;-84
2022/03/01 06:23:42;;;;;;;;;;;-3273.20;70.00;;;;;;4993094;28;20086;-83
2022/03/01 06:26:08;;;;;;;39.73;16.70;;;-3273.20;70.10;;;;;;4993727;28;19910;-84
2022/03/01 06:28:34;;;;;;;;;;;-3273.30;69.90;;;;;;5025342;28;20109;-82
2022/03/01 06:31:00;;;;;;;60.70;21.57;;;-3273.40;70.10;;;;;;4991813;28;20000;-83
2022/03/01 06:33:25;;;;;;;;;;;-3273.50;70.00;;;;;;5025511;28;20510;-82
2022/03/01 06:35:51;;;;;;;128.10;44.00;;;-3273.50;70.10;;;;;;4992850;28;20383;-83
2022/03/01 06:38:17;;;;;;;;;;;-3273.60;69.90;;;;;;5030139;28;20081;-82
2022/03/01 06:40:42;;;;;;;100.57;35.03;;;-3273.70;70.10;;;;;;4996345;28;19917;-83
2022/03/01 06:43:08;;;;;;;;;;;-3273.80;69.90;;;;;;5029380;28;20377;-83
2022/03/01 06:45:33;;;;;;;88.73;35.30;;;-3273.90;70.00;;;;;;4996397;28;19909;-83
2022/03/01 06:47:59;;;;;;;119.53;42.50;;;-3274.00;69.90;;;;;;5000101;28;20022;-83
2022/03/01 06:50:26;;;;;;;89.53;33.25;;;-3274.10;70.00;;;;;;5029150;28;20026;-84
2022/03/01 06:52:52;;;;;;;72.20;30.87;;;-3274.30;70.10;;;;;;5028916;28;20046;-84
2022/03/01 06:55:19;;;;;;;;;;;-3274.40;70.20;;;;;;5029563;28;20026;-84
2022/03/01 06:57:44;;;;;;;67.28;25.75;;;-3274.50;70.30;;;;;;4996831;28;20255;-84
2022/03/01 07:00:11;;;;;;;;;;;-3274.70;70.00;;;;;;5030349;28;20014;-84
2022/03/01 07:02:40;;;;;;;54.93;22.53;;;-3274.80;70.10;;;;;;4998907;28;19917;-84
2022/03/01 07:05:07;;;;;;;52.67;21.00;;;-3274.90;69.80;;;;;;5028248;28;20484;-85
2022/03/01 07:07:32;;;;;;;42.20;16.60;;;-3275.10;69.90;;;;;;4995937;28;20062;-84
2022/03/01 07:09:58;;;;;;;;;;;-3275.20;70.00;;;;;;5026429;28;20069;-84
2022/03/01 07:12:23;;;;;;;35.40;13.30;;;-3275.40;70.10;;;;;;4995582;28;20298;-84
2022/03/01 07:14:49;;;;;;;27.27;11.57;;;-3275.60;69.80;;;;;;5027595;28;20030;-83
2022/03/01 07:17:17;;;;;;;;;;;-3275.70;69.80;;;;;;5026648;28;20030;-84
2022/03/01 07:19:43;;;;;;;25.07;10.80;;;-3276.00;69.90;;;;;;4995701;28;19921;-83
2022/03/01 07:22:08;;;;;;;;;;;-3276.20;69.60;;;;;;4996124;28;20073;-84
2022/03/01 07:24:35;;;;;;;27.20;10.67;;;-3276.30;69.60;;;;;;4992738;28;19909;-83
2022/03/01 07:27:01;;;;;;;24.47;10.33;;;-3276.50;69.30;;;;;;4992319;28;20027;-84
2022/03/01 07:29:27;;;;;;;;;;;-3276.70;69.30;;;;;;5027246;28;20025;-87
2022/03/01 07:31:53;;;;;;;25.23;10.10;;;0.00;69.20;;;;;;4995916;28;19932;-86
2022/03/01 07:34:18;;;;;;;;;;;0.20;68.90;;;;;;5027479;28;20113;-86
2022/03/01 07:36:44;;;;;;;21.37;8.57;;;0.30;68.90;;;;;;4995734;28;19910;-85
2022/03/01 07:39:09;;;;;;;;;;;0.40;68.50;;;;;;4996050;28;20108;-86
2022/03/01 07:41:35;;;;;;;19.17;8.27;;;0.60;68.50;;;;;;4994519;28;19911;-87
2022/03/01 07:44:00;;;;;;;26.60;9.52;;;0.70;68.10;;;;;;5027686;28;20034;-87
2022/03/01 07:46:34;;;;;;;25.17;8.70;;;0.80;68.10;;;;;;5027513;28;20015;-87
2022/03/01 07:48:59;;;;;;;25.47;8.73;;;0.90;68.00;;;;;;5027859;28;20030;-87
2022/03/01 07:51:25;;;;;;;;;;;1.00;67.90;;;;;;5027506;28;20400;-86
2022/03/01 07:53:51;;;;;;;16.80;7.20;;;1.10;67.90;;;;;;4994830;28;20001;-86
2022/03/01 07:56:20;;;;;;;22.47;9.00;;;1.30;67.50;;;;;;4996296;28;20510;-87
2022/03/01 07:58:46;;;;;;;20.87;9.40;;;1.40;67.50;;;;;;5027275;28;20048;-86
2022/03/01 08:01:12;;;;;;;;;;;1.40;67.40;;;;;;5027914;28;20117;-87
2022/03/01 08:03:37;;;;;;;25.13;9.90;;;1.50;67.30;;;;;;4995662;28;19956;-86
2022/03/01 08:06:03;;;;;;;21.75;10.77;;;1.60;66.90;;;;;;5027673;28;20145;-86
2022/03/01 08:08:29;;;;;;;28.55;11.50;;;1.60;66.90;;;;;;5027665;28;20361;-86
2022/03/01 08:11:45;;;;;;;26.90;10.87;;;1.70;66.90;;;;;;5116574;27;20369;-87
2022/03/01 08:14:10;;;;;;;;;;;1.80;66.80;;;;;;5136765;27;20024;-85
2022/03/01 08:16:36;;;;;;;24.80;9.93;;;1.90;66.70;;;;;;5114906;28;19934;-86
2022/03/01 08:19:02;;;;;;;32.80;11.30;;;2.00;66.40;;;;;;5123400;28;20015;-87
2022/03/01 08:21:28;;;;;;;20.23;9.52;;;2.10;66.30;;;;;;5114777;28;20077;-87
2022/03/01 08:23:53;;;;;;;;;;;2.20;66.20;;;;;;5118890;28;20034;-85
2022/03/01 08:26:19;;;;;;;18.67;7.70;;;2.30;66.10;;;;;;5115376;28;19908;-89
2022/03/01 08:28:46;;;;;;;20.77;8.38;;;2.30;65.80;;;;;;5111846;28;20028;-89
2022/03/01 08:31:12;;;;;;;14.90;6.67;;;2.40;65.70;;;;;;5120552;28;20016;-90
2022/03/01 08:33:38;;;;;;;;;;;2.40;65.60;;;;;;5121478;28;20035;-87
2022/03/01 08:36:04;;;;;;;20.20;8.97;;;2.50;65.60;;;;;;5119864;28;19908;-89
2022/03/01 08:38:30;;;;;;;20.27;7.97;;;2.70;65.20;;;;;;5135200;28;20020;-89
2022/03/01 08:40:56;;;;;;;;;;;2.70;64.80;;;;;;5166537;27;20040;-88
2022/03/01 08:43:22;;;;;;;19.73;7.00;;;2.70;64.70;;;;;;5138923;28;19911;-88
2022/03/01 08:45:48;;;;;;;16.63;7.28;;;2.80;64.30;;;;;;5141662;28;20071;-88
2022/03/01 08:48:15;;;;;;;13.83;6.33;;;2.90;64.30;;;;;;5149913;27;20008;-88
2022/03/01 08:50:41;;;;;;;16.20;6.67;;;2.90;63.70;;;;;;5142278;27;20035;-89
2022/03/01 08:53:07;;;;;;;12.25;5.47;;;3.00;63.50;;;;;;5154283;27;20026;-88
2022/03/01 08:55:33;;;;;;;16.35;5.43;;;3.10;63.00;;;;;;5137905;27;20031;-87
2022/03/01 08:57:59;;;;;;;14.50;6.47;;;3.20;62.50;;;;;;5158959;27;20019;-88
2022/03/01 09:00:26;;;;;;;14.53;6.60;;;3.30;62.30;;;;;;5132216;27;20089;-89
2022/03/01 09:02:51;;;;;;;14.17;5.87;;;3.40;61.80;;;;;;5134360;28;20034;-89
2022/03/01 09:05:17;;;;;;;13.18;5.78;;;3.50;61.60;;;;;;5129251;28;20056;-89
2022/03/01 09:07:43;;;;;;;13.98;5.82;;;3.60;61.30;;;;;;5140469;27;20020;-89
2022/03/01 09:10:09;;;;;;;14.15;5.95;;;3.60;61.10;;;;;;5132982;28;20047;-89
2022/03/01 09:12:35;;;;;;;15.13;6.27;;;3.70;60.90;;;;;;5130295;28;20027;-90
2022/03/01 09:15:01;;;;;;;;;;;3.80;60.60;;;;;;5147030;27;20024;-86
2022/03/01 09:17:27;;;;;;;10.30;4.47;;;3.90;60.60;;;;;;5128836;27;19964;-85
2022/03/01 09:19:52;;;;;;;9.82;5.13;;;4.10;60.20;;;;;;5119896;28;20548;-84
2022/03/01 09:22:18;;;;;;;10.52;4.65;;;4.20;59.70;;;;;;5122796;28;20065;-87
2022/03/01 09:24:44;;;;;;;8.73;4.13;;;4.30;59.40;;;;;;5129997;27;20035;-88
2022/03/01 09:27:11;;;;;;;13.60;5.27;;;4.30;58.70;;;;;;5110300;28;20032;-87
2022/03/01 09:29:36;;;;;;;11.90;4.23;;;4.40;58.40;;;;;;5110640;28;20019;-86
2022/03/01 09:32:03;;;;;;;9.43;4.35;;;4.50;58.10;;;;;;5127322;27;20020;-86
2022/03/01 09:34:29;;;;;;;9.47;4.40;;;4.60;57.90;;;;;;5098573;28;20046;-84
2022/03/01 09:36:55;;;;;;;10.40;4.33;;;4.70;57.40;;;;;;5101510;28;20028;-84
2022/03/01 09:39:21;;;;;;;13.02;4.72;;;4.80;55.90;;;;;;5125520;27;20103;-84
2022/03/01 09:41:48;;;;;;;13.40;5.30;;;4.80;55.60;;;;;;5108490;28;20031;-84
2022/03/01 09:44:16;;;;;;;14.47;5.73;;;4.80;55.10;;;;;;5107918;28;20048;-86
2022/03/01 09:46:42;;;;;;;11.07;4.10;;;4.90;55.00;;;;;;5107713;28;20020;-84
2022/03/01 09:49:08;;;;;;;11.83;4.07;;;5.00;54.40;;;;;;5106884;28;20028;-84
2022/03/01 09:51:37;;;;;;;10.10;4.88;;;5.10;54.30;;;;;;5119812;27;20032;-84
2022/03/01 09:54:03;;;;;;;10.17;3.93;;;5.20;54.20;;;;;;5110090;28;20028;-84
2022/03/01 09:56:28;;;;;;;10.98;4.07;;;5.30;53.70;;;;;;5121503;27;20072;-84
2022/03/01 09:58:55;;;;;;;5.05;3.00;;;5.40;53.40;;;;;;5104414;28;20016;-85
2022/03/01 10:01:21;;;;;;;8.27;3.03;;;5.50;52.40;;;;;;5099052;28;20358;-82
2022/03/01 10:03:48;;;;;;;8.75;2.95;;;5.50;52.00;;;;;;5110111;28;20039;-84
2022/03/01 10:06:15;;;;;;;7.20;2.70;;;5.60;51.80;;;;;;5115279;27;20050;-84
2022/03/01 10:08:41;;;;;;;6.03;3.00;;;5.70;50.90;;;;;;5103234;28;20081;-84
2022/03/01 10:11:08;;;;;;;6.30;2.93;;;5.80;50.40;;;;;;5112692;28;20044;-84
2022/03/01 10:13:38;;;;;;;6.50;3.37;;;5.80;50.40;;;;;;5102140;28;20027;-84
2022/03/01 10:16:06;;;;;;;7.00;3.03;;;5.90;50.00;;;;;;5102385;28;20108;-85
2022/03/01 10:18:35;;;;;;;5.23;2.50;;;6.00;49.60;;;;;;5119230;27;20449;-84
2022/03/01 10:21:11;;;;;;;6.00;2.60;;;6.20;49.00;;;;;;5103463;28;20078;-84
2022/03/01 10:24:09;;;;;;;7.35;2.58;;;6.70;47.90;;;;;;5111310;28;20035;-84
2022/03/01 10:26:39;;;;;;;7.00;3.00;;;7.80;45.90;;;;;;5099595;27;20062;-85
2022/03/01 10:29:06;;;;;;;6.17;3.17;;;9.20;43.20;;;;;;5128448;27;20019;-84
2022/03/01 10:31:34;;;;;;;8.40;2.70;;;10.60;41.30;;;;;;5105102;28;20020;-85
2022/03/01 10:34:04;;;;;;;8.00;3.22;;;11.70;38.70;;;;;;5105594;28;20024;-83
2022/03/01 10:36:35;;;;;;;9.63;2.78;;;12.70;37.80;;;;;;5097602;28;20023;-84
2022/03/01 10:39:10;;;;;;;6.63;3.30;;;13.80;36.40;;;;;;5110039;28;20059;-85
2022/03/01 10:41:40;;;;;;;6.30;3.20;;;14.70;34.90;;;;;;5097462;28;20024;-85
2022/03/01 10:44:07;;;;;;;8.18;3.50;;;15.70;34.70;;;;;;5110522;28;20031;-84
2022/03/01 10:46:42;;;;;;;6.72;3.10;;;16.80;33.50;;;;;;5109385;28;20019;-85
2022/03/01 10:49:15;;;;;;;6.40;3.35;;;17.80;31.60;;;;;;5104318;28;20032;-84
2022/03/01 10:51:51;;;;;;;8.18;3.17;;;18.30;29.90;;;;;;5103065;28;20078;-84
2022/03/01 10:54:39;;;;;;;7.33;3.40;;;19.00;28.70;;;;;;5102623;28;20103;-84
2022/03/01 10:57:07;;;;;;;6.95;3.00;;;19.50;28.30;;;;;;5093628;28;20036;-84
2022/03/01 10:59:35;;;;;;;7.25;3.50;;;20.30;27.90;;;;;;5096933;28;20016;-85
2022/03/01 11:02:02;;;;;;;9.90;3.88;;;20.70;26.60;;;;;;5122275;27;20039;-84
2022/03/01 11:04:28;;;;;;;8.90;3.40;;;21.00;26.10;;;;;;5100603;28;20020;-85
2022/03/01 11:06:59;;;;;;;7.00;3.80;;;21.40;25.40;;;;;;5098553;28;20028;-85
2022/03/01 11:09:27;;;;;;;6.40;3.60;;;21.80;24.50;;;;;;5102406;28;20463;-85
2022/03/01 11:11:53;;;;;;;6.72;3.45;;;22.00;23.80;;;;;;5107496;28;20115;-84
2022/03/01 11:14:29;;;;;;;6.47;3.33;;;22.10;23.10;;;;;;5105084;28;20036;-85
2022/03/01 11:16:58;;;;;;;7.90;4.00;;;22.00;22.90;;;;;;5097885;28;20052;-84
2022/03/01 11:19:44;;;;;;;8.38;3.65;;;21.90;23.00;;;;;;5109597;28;20658;-85
2022/03/01 11:22:40;;;;;;;8.98;4.20;;;21.70;23.30;;;;;;5096320;28;20024;-83
2022/03/01 11:25:07;;;;;;;8.00;4.13;;;21.30;23.30;;;;;;5105030;28;20012;-84
2022/03/01 11:27:44;;;;;;;6.20;3.47;;;21.10;23.10;;;;;;5100977;28;20104;-85
2022/03/01 11:30:10;;;;;;;7.13;3.75;;;21.10;22.50;;;;;;5107207;28;20043;-83
2022/03/01 11:32:53;;;;;;;7.70;3.97;;;21.30;22.80;;;;;;5098095;28;20111;-84
2022/03/01 11:35:22;;;;;;;8.18;3.55;;;21.50;21.70;;;;;;5101186;28;20027;-85
2022/03/01 11:38:05;;;;;;;6.90;3.80;;;21.60;21.40;;;;;;5100227;28;20035;-87
2022/03/01 11:40:36;;;;;;;7.95;4.03;;;21.60;21.10;;;;;;5100006;28;20046;-87
2022/03/01 11:43:17;;;;;;;8.48;4.50;;;21.80;21.20;;;;;;5102077;28;20108;-87
2022/03/01 11:45:51;;;;;;;8.35;4.60;;;22.20;21.00;;;;;;5107111;28;20031;-87
2022/03/01 11:48:20;;;;;;;7.93;4.30;;;22.50;20.80;;;;;;5109815;28;20494;-86
2022/03/01 11:51:05;;;;;;;7.20;4.60;;;22.80;20.90;;;;;;5101026;28;20122;-86
2022/03/01 11:53:36;;;;;;;9.50;4.57;;;23.10;20.40;;;;;;5101514;28;20377;-87
2022/03/01 11:56:04;;;;;;;9.45;4.30;;;23.30;20.30;;;;;;5101332;28;20024;-86
2022/03/01 11:58:31;;;;;;;7.00;4.28;;;23.80;20.40;;;;;;5092870;28;20024;-87
2022/03/01 12:00:56;;;;;;;8.40;4.95;;;24.30;20.00;;;;;;5105513;28;20112;-87
2022/03/01 12:03:27;;;;;;;9.32;4.60;;;24.70;19.60;;;;;;5094457;28;20419;-88
2022/03/01 12:05:55;;;;;;;9.05;5.00;;;24.90;18.80;;;;;;5104741;28;20500;-87
2022/03/01 12:08:21;;;;;;;9.95;4.68;;;24.90;18.90;;;;;;5105071;28;20081;-87
2022/03/01 12:10:56;;;;;;;8.77;4.78;;;25.20;18.70;;;;;;5109832;28;20038;-86
2022/03/01 12:16:45;;;;;;;9.90;4.55;;;26.00;18.10;;;;;;5104930;28;20030;-88
2022/03/01 12:19:15;;;;;;;8.15;4.70;;;26.20;18.20;;;;;;5120578;28;20108;-87
2022/03/01 12:21:50;;;;;;;9.00;4.30;;;26.10;17.90;;;;;;5122543;28;20042;-87
2022/03/01 12:24:17;;;;;;;8.70;4.28;;;26.00;17.40;;;;;;5118815;28;20027;-87
2022/03/01 12:26:46;;;;;;;9.40;4.60;;;25.90;17.40;;;;;;5120368;28;20008;-86
2022/03/01 12:29:13;;;;;;;7.05;4.82;;;25.80;17.30;;;;;;5125720;28;20038;-86
2022/03/01 12:31:39;;;;;;;10.25;4.82;;;26.00;17.40;;;;;;5125053;28;20042;-86
2022/03/01 12:34:09;;;;;;;9.68;4.70;;;26.40;17.20;;;;;;5124888;28;20063;-87
2022/03/01 12:36:40;;;;;;;7.38;3.97;;;26.90;16.80;;;;;;5127483;28;20057;-88
2022/03/01 12:39:14;;;;;;;7.18;3.88;;;27.20;16.40;;;;;;5113256;28;20531;-87
2022/03/01 12:41:41;;;;;;;9.50;4.47;;;27.20;16.30;;;;;;5104857;28;20043;-86
2022/03/01 12:44:09;;;;;;;8.80;4.70;;;27.10;16.30;;;;;;5099350;28;20111;-87
2022/03/01 12:46:35;;;;;;;7.18;4.65;;;27.20;16.20;;;;;;5105345;28;20111;-87
2022/03/01 12:53:14;;;;;;;5.53;3.40;;;27.00;15.50;;;;;;5095831;28;20088;-87